Time;durP1;ratioP1;P1;durP2;ratioP2;P2;SDS_P1;SDS_P2;PMS_P1;PMS_P2;Temp;Humidity;BMP_temperature;BMP_pressure;BME280_temperature;BME280_humidity;BME280_pressure;Samples;Min_cycle;Max_cycle;Signal;HPM_P1;HPM_P2
2022/08/01 00:02:15;;;;;;;16.25;7.80;;;;;;;14.88;61.87;100226.47;4820151;29;20053;-78
2022/08/01 00:04:41;;;;;;;14.55;7.38;;;;;;;14.82;61.76;100213.50;4819422;29;20510;-78
2022/08/01 00:07:08;;;;;;;20.58;7.97;;;;;;;14.89;61.75;100222.97;4819576;29;20050;-80
2022/08/01 00:09:34;;;;;;;13.77;7.50;;;;;;;14.88;61.83;100226.47;4818373;29;20076;-80
2022/08/01 00:12:01;;;;;;;15.90;7.85;;;;;;;14.81;61.75;100209.16;4803287;29;20070;-79
2022/08/01 00:14:28;;;;;;;14.52;7.20;;;;;;;14.78;62.03;100199.59;4820325;29;20042;-79
2022/08/01 00:16:54;;;;;;;13.48;7.78;;;;;;;14.82;62.17;100216.97;4820285;29;20082;-79
2022/08/01 00:19:20;;;;;;;16.45;7.60;;;;;;;14.77;62.20;100203.13;4820138;29;20042;-79
2022/08/01 00:21:46;;;;;;;15.65;7.55;;;;;;;14.48;62.38;100157.38;4822337;29;20514;-80
2022/08/01 00:24:12;;;;;;;12.57;7.07;;;;;;;14.85;62.44;100218.69;4821476;29;20050;-78
2022/08/01 00:26:39;;;;;;;16.75;7.65;;;;;;;14.66;62.67;100194.56;4821033;29;20503;-79
2022/08/01 00:29:05;;;;;;;15.23;7.78;;;;;;;14.79;62.37;100210.94;4821919;29;20077;-79
2022/08/01 00:31:31;;;;;;;15.55;7.18;;;;;;;14.72;62.60;100212.81;4821999;29;20055;-79
2022/08/01 00:33:57;;;;;;;14.10;7.57;;;;;;;14.69;62.33;100210.25;4820396;29;20050;-79
2022/08/01 00:36:23;;;;;;;19.85;8.48;;;;;;;14.68;62.37;100217.22;4820813;29;20060;-79
2022/08/01 00:38:51;;;;;;;14.05;7.97;;;;;;;14.62;62.42;100214.72;4820119;29;20112;-79
2022/08/01 00:41:17;;;;;;;14.25;7.93;;;;;;;14.42;62.67;100188.91;4819690;29;20148;-80
2022/08/01 00:43:43;;;;;;;18.65;9.13;;;;;;;14.54;62.69;100227.09;4821155;29;20042;-79
2022/08/01 00:46:09;;;;;;;17.27;7.82;;;;;;;14.42;62.64;100210.72;4836190;29;20056;-79
2022/08/01 00:48:36;;;;;;;15.98;8.15;;;;;;;14.15;62.69;100173.69;4819924;29;20038;-80
2022/08/01 00:51:04;;;;;;;19.42;8.65;;;;;;;14.37;63.11;100209.06;4811684;29;20113;-79
2022/08/01 00:53:30;;;;;;;13.52;7.90;;;;;;;14.26;63.27;100204.00;4821395;29;20046;-80
2022/08/01 00:55:56;;;;;;;14.18;7.60;;;;;;;14.00;63.16;100160.88;4821103;29;20110;-80
2022/08/01 00:58:23;;;;;;;15.98;8.30;;;;;;;13.98;63.16;100170.50;4821449;29;20042;-79
2022/08/01 01:00:50;;;;;;;19.00;8.40;;;;;;;14.12;63.48;100196.44;4820928;29;20110;-79
2022/08/01 01:03:16;;;;;;;18.17;8.18;;;;;;;14.26;63.68;100222.34;4821019;29;20078;-79
2022/08/01 01:06:03;;;;;;;13.45;7.88;;;;;;;14.15;63.61;100204.19;4835762;29;20058;-79
2022/08/01 01:08:41;;;;;;;15.55;8.65;;;;;;;14.22;63.73;100223.31;4821285;29;20403;-78
2022/08/01 01:11:31;;;;;;;17.33;8.02;;;;;;;14.02;63.73;100187.84;4820047;29;20043;-79
2022/08/01 01:14:13;;;;;;;15.05;8.88;;;;;;;14.18;63.83;100211.16;4820743;29;20054;-79
2022/08/01 01:16:42;;;;;;;12.82;8.15;;;;;;;14.15;63.86;100218.16;4820627;29;20348;-79
2022/08/01 01:19:16;;;;;;;17.42;10.23;;;;;;;14.20;64.19;100212.00;4814909;29;20073;-79
2022/08/01 01:21:54;;;;;;;15.93;8.82;;;;;;;14.22;63.88;100210.22;4804380;29;20042;-80
2022/08/01 01:25:02;;;;;;;12.80;8.30;;;;;;;14.26;64.21;100212.75;4819768;29;20133;-79
2022/08/01 01:27:37;;;;;;;12.98;8.57;;;;;;;14.31;64.03;100217.88;4800095;29;20129;-80
2022/08/01 01:30:07;;;;;;;13.25;8.45;;;;;;;14.29;64.18;100217.94;4827747;29;20541;-79
2022/08/01 01:32:41;;;;;;;11.60;7.95;;;;;;;14.35;63.87;100227.41;4828748;29;20084;-79
2022/08/01 01:35:38;;;;;;;20.15;8.20;;;;;;;14.38;63.89;100231.72;4826882;29;20122;-78
2022/08/01 01:38:10;;;;;;;15.05;9.00;;;;;;;14.40;64.05;100227.31;4828399;29;20054;-79
2022/08/01 01:40:38;;;;;;;19.85;11.30;;;;;;;14.37;63.95;100225.63;4821310;29;20054;-80
2022/08/01 01:43:09;;;;;;;14.93;10.93;;;;;;;14.11;63.93;100192.94;4821150;29;20057;-78
2022/08/01 01:45:36;;;;;;;14.52;10.02;;;;;;;14.27;63.91;100219.69;4821933;29;20411;-79
2022/08/01 01:48:04;;;;;;;23.50;9.18;;;;;;;14.10;63.56;100191.19;4807165;29;20465;-79
2022/08/01 01:50:31;;;;;;;20.27;10.93;;;;;;;14.23;63.81;100225.03;4831121;29;20077;-79
2022/08/01 01:53:01;;;;;;;18.92;11.32;;;;;;;14.21;63.98;100216.34;4836892;29;20061;-79
2022/08/01 01:55:29;;;;;;;16.60;10.18;;;;;;;14.10;64.18;100199.06;4833041;29;20046;-79
2022/08/01 01:57:58;;;;;;;18.77;11.70;;;;;;;13.99;64.17;100185.31;4839842;29;20060;-78
2022/08/01 02:00:26;;;;;;;16.60;10.85;;;;;;;14.18;64.02;100217.22;4858847;29;20030;-79
2022/08/01 02:02:56;;;;;;;16.27;10.55;;;;;;;13.80;64.21;100153.34;4859109;29;20046;-80
2022/08/01 02:05:24;;;;;;;14.35;10.00;;;;;;;14.24;64.61;100213.63;4844582;29;20031;-79
2022/08/01 02:07:52;;;;;;;18.05;10.13;;;;;;;14.27;64.11;100221.44;4840026;29;20165;-79
2022/08/01 02:10:19;;;;;;;19.58;10.13;;;;;;;14.20;64.26;100218.06;4834565;29;20053;-79
2022/08/01 02:12:48;;;;;;;13.07;9.82;;;;;;;14.27;64.50;100221.44;4839713;29;20075;-78
2022/08/01 02:15:17;;;;;;;15.77;11.05;;;;;;;14.35;64.67;100221.31;4819270;29;20059;-80
2022/08/01 02:17:48;;;;;;;17.38;11.32;;;;;;;14.35;64.30;100210.81;4827701;29;20419;-78
2022/08/01 02:20:16;;;;;;;15.83;11.43;;;;;;;14.48;64.01;100214.97;4822147;29;20161;-78
2022/08/01 02:22:47;;;;;;;14.70;10.88;;;;;;;14.55;64.43;100213.09;4819893;29;20119;-78
2022/08/01 02:25:19;;;;;;;13.65;10.40;;;;;;;14.68;64.02;100211.13;4802962;29;20140;-78
2022/08/01 02:27:54;;;;;;;18.80;11.38;;;;;;;14.75;63.74;100213.59;4819393;29;20133;-79
2022/08/01 02:30:24;;;;;;;16.70;11.40;;;;;;;14.81;63.48;100215.22;4817800;29;20099;-79
2022/08/01 02:33:01;;;;;;;20.23;11.10;;;;;;;14.90;63.05;100216.81;4819981;29;20053;-79
2022/08/01 02:35:32;;;;;;;14.80;9.35;;;;;;;15.01;63.29;100212.22;4823951;29;20058;-79
2022/08/01 02:37:59;;;;;;;18.17;11.05;;;;;;;15.06;62.83;100204.25;4824470;29;20042;-79
2022/08/01 02:40:33;;;;;;;20.83;10.02;;;;;;;15.14;62.86;100207.59;4823594;29;20047;-78
2022/08/01 02:43:03;;;;;;;15.00;9.52;;;;;;;15.21;62.79;100208.31;4825760;29;20050;-79
2022/08/01 02:45:31;;;;;;;19.55;9.52;;;;;;;15.06;62.93;100173.69;4825059;29;20045;-80
2022/08/01 02:48:11;;;;;;;21.45;10.25;;;;;;;15.17;63.00;100178.69;4823960;29;20583;-79
2022/08/01 02:50:40;;;;;;;21.27;10.32;;;;;;;15.31;63.20;100188.88;4822858;29;20125;-81
2022/08/01 02:53:09;;;;;;;18.92;10.57;;;;;;;15.56;62.91;100214.53;4826410;29;20050;-80
2022/08/01 02:55:38;;;;;;;17.33;10.23;;;;;;;15.58;62.95;100204.00;4825894;29;20110;-79
2022/08/01 02:58:06;;;;;;;17.83;10.55;;;;;;;15.72;62.70;100203.69;4824262;29;20042;-79
2022/08/01 03:00:34;;;;;;;18.40;10.73;;;;;;;15.80;62.75;100215.72;4827644;29;20081;-81
2022/08/01 03:03:02;;;;;;;18.52;10.32;;;;;;;15.96;62.46;100213.63;4822954;29;20380;-81
2022/08/01 03:05:30;;;;;;;17.77;10.52;;;;;;;16.07;62.18;100220.38;4824316;29;20050;-79
2022/08/01 03:07:58;;;;;;;16.80;10.27;;;;;;;16.15;62.12;100221.03;4823215;29;20190;-80
2022/08/01 03:10:30;;;;;;;13.20;10.00;;;;;;;16.17;61.87;100211.38;4823846;29;20058;-81
2022/08/01 03:13:00;;;;;;;18.08;12.10;;;;;;;16.34;61.75;100231.06;4823165;29;20046;-80
2022/08/01 03:15:30;;;;;;;16.15;11.00;;;;;;;16.47;61.72;100223.72;4805633;29;20130;-79
2022/08/01 03:17:59;;;;;;;17.77;11.85;;;;;;;16.53;61.19;100200.78;4815499;29;20111;-79
2022/08/01 03:20:26;;;;;;;15.70;11.35;;;;;;;16.68;61.31;100212.66;4815833;29;20132;-79
2022/08/01 03:22:53;;;;;;;19.88;12.00;;;;;;;16.71;60.61;100206.44;4824192;29;20077;-81
2022/08/01 03:25:23;;;;;;;16.88;11.52;;;;;;;16.73;60.29;100214.28;4806652;29;20069;-78
2022/08/01 03:27:55;;;;;;;15.98;12.07;;;;;;;16.78;60.75;100204.50;4822564;29;20053;-79
2022/08/01 03:30:26;;;;;;;16.50;10.48;;;;;;;16.93;60.31;100206.69;4822654;29;20042;-79
2022/08/01 03:32:53;;;;;;;;;;;;;;;17.08;60.15;100213.31;4823214;29;20058;-79
2022/08/01 03:35:22;;;;;;;16.10;9.63;;;;;;;17.06;60.10;100194.09;4808070;29;19928;-80
2022/08/01 03:37:52;;;;;;;16.52;8.82;;;;;;;17.24;59.67;100213.69;4824489;29;20107;-78
2022/08/01 03:40:25;;;;;;;12.98;8.48;;;;;;;17.22;59.35;100206.78;4821960;29;20046;-78
2022/08/01 03:43:02;;;;;;;15.40;8.68;;;;;;;17.30;59.16;100202.16;4823360;29;20046;-79
2022/08/01 03:45:36;;;;;;;14.20;8.18;;;;;;;17.42;58.75;100199.13;4827943;29;20061;-78
2022/08/01 03:48:09;;;;;;;14.25;7.82;;;;;;;17.58;58.62;100201.28;4831090;29;20046;-79
2022/08/01 03:50:39;;;;;;;11.80;7.45;;;;;;;17.65;58.29;100194.06;4811232;29;20601;-78
2022/08/01 03:53:09;;;;;;;11.93;7.60;;;;;;;17.80;57.91;100203.22;4826748;29;20042;-79
2022/08/01 03:55:37;;;;;;;14.50;7.65;;;;;;;17.98;57.37;100196.50;4826934;29;20134;-78
2022/08/01 03:58:05;;;;;;;11.40;7.55;;;;;;;18.12;57.22;100182.91;4811431;29;20042;-80
2022/08/01 04:00:35;;;;;;;15.95;7.90;;;;;;;18.37;56.77;100193.44;4825401;29;20069;-78
2022/08/01 04:03:02;;;;;;;18.40;7.90;;;;;;;18.60;56.29;100186.50;4811593;29;21088;-80
2022/08/01 04:05:28;;;;;;;12.68;7.45;;;;;;;18.75;56.03;100187.72;4826609;29;20066;-79
2022/08/01 04:07:56;;;;;;;15.90;7.47;;;;;;;18.93;55.70;100192.31;4826902;29;20108;-82
2022/08/01 04:10:26;;;;;;;12.15;6.78;;;;;;;19.02;54.94;100193.75;4829455;29;20054;-82
2022/08/01 04:12:52;;;;;;;10.70;6.88;;;;;;;19.14;55.24;100178.41;4832523;29;20060;-80
2022/08/01 04:15:20;;;;;;;12.30;6.75;;;;;;;19.31;54.48;100191.78;4824878;29;20110;-79
2022/08/01 04:17:49;;;;;;;11.57;5.85;;;;;;;19.34;54.53;100181.13;4837058;29;20047;-78
2022/08/01 04:20:16;;;;;;;9.48;6.43;;;;;;;19.59;54.17;100195.09;4827382;29;20145;-80
2022/08/01 04:22:43;;;;;;;9.35;6.15;;;;;;;19.74;53.77;100176.03;4830031;29;20128;-82
2022/08/01 04:25:15;;;;;;;11.65;6.53;;;;;;;19.76;53.09;100153.03;4826782;29;20084;-81
2022/08/01 04:27:45;;;;;;;13.23;6.25;;;;;;;20.01;52.92;100192.53;4832470;29;20050;-82
2022/08/01 04:30:14;;;;;;;11.45;6.30;;;;;;;20.06;52.05;100196.78;4810703;29;20046;-82
2022/08/01 04:32:44;;;;;;;9.45;5.90;;;;;;;20.11;51.91;100205.34;4828319;29;20048;-81
2022/08/01 04:35:16;;;;;;;13.18;6.18;;;;;;;20.12;52.31;100181.50;4827477;29;20052;-82
2022/08/01 04:37:45;;;;;;;9.82;6.40;;;;;;;20.34;51.84;100162.09;4808155;29;20058;-80
2022/08/01 04:40:12;;;;;;;12.98;6.68;;;;;;;20.58;51.51;100176.00;4817150;29;20046;-80
2022/08/01 04:42:40;;;;;;;12.13;6.78;;;;;;;20.77;50.70;100185.75;4828603;29;20539;-80
2022/08/01 04:45:08;;;;;;;10.55;5.97;;;;;;;20.91;50.84;100185.13;4812700;29;20054;-81
2022/08/01 04:47:36;;;;;;;9.55;5.68;;;;;;;21.05;50.63;100174.81;4826766;29;20534;-81
2022/08/01 04:50:11;;;;;;;9.23;5.57;;;;;;;21.38;50.02;100197.09;4837094;29;20147;-80
2022/08/01 04:52:38;;;;;;;11.80;5.47;;;;;;;21.55;49.31;100190.97;4808634;29;20110;-80
2022/08/01 04:55:08;;;;;;;14.27;5.25;;;;;;;21.57;49.18;100161.78;4838146;29;20085;-79
2022/08/01 04:57:37;;;;;;;8.90;5.90;;;;;;;22.00;48.87;100193.22;4836182;29;20046;-81
2022/08/01 05:00:04;;;;;;;9.60;5.43;;;;;;;21.92;48.11;100173.31;4822554;29;20034;-79
2022/08/01 05:02:30;;;;;;;10.40;6.00;;;;;;;22.27;48.04;100194.47;4849238;29;20049;-80
2022/08/01 05:04:57;;;;;;;10.27;5.38;;;;;;;22.31;47.32;100184.56;4848123;29;20054;-81
2022/08/01 05:07:24;;;;;;;11.18;5.45;;;;;;;22.55;47.29;100187.78;4848351;29;20035;-79
2022/08/01 05:09:51;;;;;;;7.32;5.22;;;;;;;22.60;47.03;100182.22;4847846;29;20114;-80
2022/08/01 05:12:18;;;;;;;13.38;5.70;;;;;;;22.76;47.01;100198.19;4845668;29;20042;-81
2022/08/01 05:14:46;;;;;;;10.13;5.10;;;;;;;22.63;46.59;100190.03;4815996;29;20622;-79
2022/08/01 05:17:12;;;;;;;10.02;4.82;;;;;;;22.49;46.49;100180.16;4811456;29;20567;-78
2022/08/01 05:19:40;;;;;;;7.03;4.95;;;;;;;22.70;46.52;100193.19;4816101;29;20042;-79
2022/08/01 05:22:07;;;;;;;12.20;4.75;;;;;;;23.04;46.08;100186.09;4827441;29;20046;-82
2022/08/01 05:24:35;;;;;;;6.72;4.00;;;;;;;23.47;45.82;100185.50;4826025;29;20042;-78
2022/08/01 05:27:02;;;;;;;10.32;3.63;;;;;;;23.80;44.86;100188.94;4828288;29;20074;-79
2022/08/01 05:29:28;;;;;;;7.18;3.15;;;;;;;23.96;44.26;100183.59;4819917;29;20053;-81
2022/08/01 05:31:54;;;;;;;4.15;2.70;;;;;;;23.81;43.69;100177.38;4832912;29;20075;-80
2022/08/01 05:34:24;;;;;;;6.38;2.72;;;;;;;23.99;43.60;100186.97;4810196;29;20054;-77
2022/08/01 05:36:50;;;;;;;4.72;2.50;;;;;;;24.24;42.95;100163.41;4815925;29;20503;-80
2022/08/01 05:39:16;;;;;;;5.82;2.67;;;;;;;24.88;41.89;100173.69;4825961;29;20433;-80
2022/08/01 05:41:44;;;;;;;7.45;2.45;;;;;;;25.52;41.49;100171.38;4811693;29;20133;-79
2022/08/01 05:44:11;;;;;;;4.28;2.63;;;;;;;26.52;40.55;100141.56;4828655;29;20034;-79
2022/08/01 05:46:37;;;;;;;6.15;2.80;;;;;;;28.48;37.76;100145.91;4833030;29;20050;-80
2022/08/01 05:49:06;;;;;;;4.15;2.42;;;;;;;29.79;36.47;100160.41;4848076;29;20046;-82
2022/08/01 05:51:33;;;;;;;5.32;2.40;;;;;;;30.86;34.14;100124.44;4848060;29;20026;-81
2022/08/01 05:54:00;;;;;;;8.82;2.75;;;;;;;31.59;31.69;100166.25;4841343;29;20038;-79
2022/08/01 05:56:26;;;;;;;7.53;3.10;;;;;;;32.21;30.63;100158.72;4832186;29;20093;-79
2022/08/01 05:58:53;;;;;;;5.60;2.55;;;;;;;33.05;29.31;100159.66;4827843;29;20483;-80
2022/08/01 06:01:19;;;;;;;4.43;2.70;;;;;;;33.69;29.06;100149.81;4826111;29;20173;-82
2022/08/01 06:03:46;;;;;;;2.72;1.80;;;;;;;33.77;27.86;100122.94;4818895;29;20050;-81
2022/08/01 06:06:13;;;;;;;2.25;1.75;;;;;;;34.26;25.98;100148.59;4824312;29;20099;-81
2022/08/01 06:08:40;;;;;;;2.13;1.88;;;;;;;34.94;26.32;100138.78;4806209;29;20038;-81
2022/08/01 06:11:07;;;;;;;4.28;2.13;;;;;;;35.87;25.18;100120.59;4819830;29;20061;-82
2022/08/01 06:13:33;;;;;;;3.90;2.38;;;;;;;37.50;23.99;100153.69;4803815;29;20469;-83
2022/08/01 06:15:59;;;;;;;4.60;1.70;;;;;;;37.94;22.85;100136.69;4819279;29;20050;-82
2022/08/01 06:18:25;;;;;;;2.47;1.52;;;;;;;38.76;21.71;100138.63;4819523;29;20073;-83
2022/08/01 06:20:52;;;;;;;2.53;1.60;;;;;;;38.17;21.22;100143.94;4820218;29;20455;-82
2022/08/01 06:23:19;;;;;;;2.50;1.60;;;;;;;38.79;21.04;100158.13;4818605;29;20571;-82
2022/08/01 06:25:46;;;;;;;8.85;1.90;;;;;;;39.64;20.46;100129.50;4820703;29;20318;-83
2022/08/01 06:28:12;;;;;;;2.92;1.70;;;;;;;40.71;18.99;100152.06;4823077;29;20061;-82
2022/08/01 06:30:39;;;;;;;3.35;1.73;;;;;;;40.29;19.05;100132.09;4819973;29;20046;-83
2022/08/01 06:33:05;;;;;;;3.35;1.90;;;;;;;40.47;18.79;100137.00;4820640;29;20135;-84
2022/08/01 06:35:31;;;;;;;4.70;4.30;;;;;;;39.45;18.53;100143.63;4821008;29;20532;-86
2022/08/01 06:37:57;;;;;;;5.53;5.00;;;;;;;39.22;18.67;100168.25;4828270;29;20057;-81
2022/08/01 06:40:24;;;;;;;4.30;3.65;;;;;;;38.77;18.65;100171.06;4824308;29;20061;-83
2022/08/01 06:42:50;;;;;;;12.80;10.73;;;;;;;38.66;19.12;100142.50;4819862;29;20046;-83
2022/08/01 06:45:16;;;;;;;5.97;5.22;;;;;;;38.95;18.54;100157.06;4818700;29;20046;-83
2022/08/01 06:47:44;;;;;;;6.68;2.33;;;;;;;39.33;17.89;100130.72;4825046;29;20077;-82
2022/08/01 06:50:13;;;;;;;1.75;1.60;;;;;;;40.99;17.46;100151.06;4828358;29;20051;-83
2022/08/01 06:52:41;;;;;;;4.47;1.60;;;;;;;40.95;17.15;100155.25;4827769;29;20038;-84
2022/08/01 06:55:08;;;;;;;3.50;1.88;;;;;;;41.61;17.32;100156.44;4825203;29;20046;-82
2022/08/01 06:57:34;;;;;;;2.10;1.80;;;;;;;40.84;16.94;100150.41;4825971;29;20082;-82
2022/08/01 07:00:10;;;;;;;2.38;1.85;;;;;;;41.25;16.99;100141.28;4824069;29;20046;-82
2022/08/01 07:02:37;;;;;;;4.38;1.48;;;;;;;41.78;16.70;100164.22;4828712;29;20041;-81
2022/08/01 07:05:04;;;;;;;3.45;1.67;;;;;;;41.91;16.15;100153.28;4845408;29;20046;-82
2022/08/01 07:07:31;;;;;;;2.42;1.80;;;;;;;41.09;16.92;100158.88;4827137;29;20061;-82
2022/08/01 07:09:57;;;;;;;2.60;1.67;;;;;;;40.29;17.33;100167.50;4824001;29;20133;-78
2022/08/01 07:12:23;;;;;;;1.70;1.60;;;;;;;40.52;17.52;100153.59;4825448;29;20042;-86
2022/08/01 07:14:49;;;;;;;5.53;1.75;;;;;;;40.90;17.17;100176.84;4808823;29;20122;-84
2022/08/01 07:17:15;;;;;;;1.90;1.67;;;;;;;40.38;17.54;100166.31;4825100;29;20416;-83
2022/08/01 07:19:42;;;;;;;2.72;1.77;;;;;;;39.80;17.69;100170.09;4823275;29;20038;-82
2022/08/01 07:22:08;;;;;;;2.10;1.92;;;;;;;40.43;17.19;100168.44;4793410;29;20058;-86
2022/08/01 07:24:34;;;;;;;3.67;1.80;;;;;;;40.17;17.35;100149.00;4824982;29;20056;-83
2022/08/01 07:27:00;;;;;;;2.47;1.95;;;;;;;40.25;17.40;100171.72;4823328;29;20042;-86
2022/08/01 07:29:27;;;;;;;1.90;1.80;;;;;;;39.55;17.07;100143.28;4804845;29;20503;-83
2022/08/01 07:31:55;;;;;;;3.15;2.00;;;;;;;39.04;18.24;100166.00;4826321;29;20042;-83
2022/08/01 07:34:23;;;;;;;4.55;1.80;;;;;;;39.52;18.40;100135.50;4824969;29;20140;-81
2022/08/01 07:36:50;;;;;;;3.13;1.55;;;;;;;41.06;17.28;100159.25;4823099;29;20054;-81
2022/08/01 07:39:16;;;;;;;2.85;1.50;;;;;;;41.14;16.95;100133.72;4822453;29;20070;-86
2022/08/01 07:41:42;;;;;;;4.80;2.28;;;;;;;42.27;16.32;100130.09;4824297;29;20084;-83
2022/08/01 07:44:09;;;;;;;2.75;1.90;;;;;;;43.25;14.67;100156.63;4827364;29;20046;-82
2022/08/01 07:46:35;;;;;;;3.42;2.10;;;;;;;44.01;14.79;100138.31;4831485;29;20145;-85
2022/08/01 07:49:01;;;;;;;2.47;1.98;;;;;;;44.48;14.11;100148.78;4826152;29;20139;-83
2022/08/01 07:51:28;;;;;;;3.53;2.00;;;;;;;44.85;14.13;100153.38;4834132;29;20106;-85
2022/08/01 07:53:54;;;;;;;5.30;2.25;;;;;;;44.95;13.42;100148.16;4830729;29;20515;-83
2022/08/01 07:56:20;;;;;;;3.03;1.73;;;;;;;44.43;13.46;100158.72;4832093;29;20057;-86
2022/08/01 07:58:47;;;;;;;1.60;1.50;;;;;;;45.05;13.21;100163.22;4823166;29;20046;-86
2022/08/01 08:01:14;;;;;;;2.20;1.60;;;;;;;44.69;13.48;100165.81;4823220;29;20048;-82
2022/08/01 08:03:40;;;;;;;2.33;2.10;;;;;;;44.47;13.57;100118.84;4823538;29;20059;-86
2022/08/01 08:06:06;;;;;;;3.03;1.80;;;;;;;45.82;12.70;100158.88;4808137;29;20062;-85
2022/08/01 08:08:34;;;;;;;3.83;2.42;;;;;;;45.91;13.05;100154.66;4808110;29;20099;-84
2022/08/01 08:11:00;;;;;;;3.92;1.80;;;;;;;45.79;12.47;100132.72;4823490;29;20084;-86
2022/08/01 08:13:27;;;;;;;3.80;1.88;;;;;;;45.77;12.69;100137.63;4822270;29;20046;-83
2022/08/01 08:15:53;;;;;;;2.95;1.80;;;;;;;46.55;12.32;100136.53;4808165;29;20054;-82
2022/08/01 08:18:19;;;;;;;3.17;2.00;;;;;;;46.54;12.02;100140.38;4822773;29;20133;-81
2022/08/01 08:20:46;;;;;;;2.53;2.03;;;;;;;47.09;12.58;100149.13;4826001;29;20102;-84
2022/08/01 08:25:56;;;;;;;2.55;2.03;;;;;;;47.26;12.04;100132.63;4824728;29;20055;-84
2022/08/01 08:28:23;;;;;;;2.40;1.75;;;;;;;46.86;12.23;100149.00;4807158;29;20042;-82
2022/08/01 08:30:49;;;;;;;3.05;1.80;;;;;;;46.85;12.30;100125.31;4823001;29;20128;-86
2022/08/01 08:33:15;;;;;;;2.20;2.00;;;;;;;46.97;12.18;100116.97;4823379;29;20049;-82
2022/08/01 08:35:41;;;;;;;2.65;1.90;;;;;;;47.04;11.03;100134.19;4826084;29;20050;-81
2022/08/01 08:38:09;;;;;;;2.47;1.90;;;;;;;45.96;12.30;100120.97;4825303;29;20132;-82
2022/08/01 08:40:36;;;;;;;1.80;1.70;;;;;;;46.52;12.08;100120.53;4825725;29;20546;-81
2022/08/01 08:43:05;;;;;;;3.17;1.90;;;;;;;46.87;11.60;100127.81;4828253;29;20564;-82
2022/08/01 08:45:33;;;;;;;2.42;1.80;;;;;;;46.59;12.42;100123.97;4826509;29;20053;-83
2022/08/01 08:47:59;;;;;;;2.53;1.83;;;;;;;47.36;12.03;100106.09;4830450;29;20102;-82
2022/08/01 08:50:27;;;;;;;3.50;2.08;;;;;;;48.01;11.51;100124.13;4846838;23;20476;-83
2022/08/01 08:52:55;;;;;;;2.10;1.90;;;;;;;48.33;11.58;100101.41;4830017;29;20098;-82
2022/08/01 08:55:21;;;;;;;2.55;1.70;;;;;;;48.43;11.11;100120.00;4849946;29;20060;-82
2022/08/01 08:57:48;;;;;;;3.60;2.28;;;;;;;47.42;11.32;100111.69;4826502;29;20085;-82
2022/08/01 09:00:16;;;;;;;2.15;1.63;;;;;;;47.23;11.23;100113.88;4821712;29;20042;-82
2022/08/01 09:02:44;;;;;;;2.90;1.88;;;;;;;46.86;10.34;100096.72;4825619;29;20067;-82
2022/08/01 09:05:11;;;;;;;5.40;1.60;;;;;;;44.59;10.86;100118.88;4813504;29;20143;-82
2022/08/01 09:07:38;;;;;;;3.63;1.90;;;;;;;44.37;12.65;100092.78;4812620;29;20145;-82
2022/08/01 09:10:08;;;;;;;4.05;1.90;;;;;;;44.08;12.03;100089.75;4815470;29;20051;-80
2022/08/01 09:12:39;;;;;;;2.15;1.90;;;;;;;44.90;12.60;100101.41;4843077;29;20575;-84
2022/08/01 09:15:06;;;;;;;2.42;1.67;;;;;;;45.92;12.29;100089.56;4827309;29;20104;-84
2022/08/01 09:17:41;;;;;;;3.13;2.40;;;;;;;47.54;11.07;100103.31;4793145;29;20095;-83
2022/08/01 09:20:22;;;;;;;2.10;2.00;;;;;;;47.09;11.47;100110.59;4830786;29;20046;-80
2022/08/01 09:22:48;;;;;;;2.47;2.00;;;;;;;46.53;10.97;100100.19;4841004;29;20125;-81
2022/08/01 09:25:14;;;;;;;2.42;1.85;;;;;;;46.62;11.74;100109.72;4841642;29;20150;-81
2022/08/01 09:27:40;;;;;;;2.90;1.70;;;;;;;48.20;10.75;100110.88;4830901;29;20030;-82
2022/08/01 09:30:13;;;;;;;2.92;1.88;;;;;;;49.02;9.95;100096.31;4857220;29;20051;-82
2022/08/01 09:33:00;;;;;;;2.20;2.00;;;;;;;49.23;8.90;100114.72;4842035;29;20046;-82
2022/08/01 09:35:34;;;;;;;3.97;2.47;;;;;;;49.59;9.55;100086.53;4845325;29;20030;-84
2022/08/01 09:38:22;;;;;;;4.55;2.13;;;;;;;50.81;9.16;100100.31;4828992;29;20046;-83
2022/08/01 09:40:52;;;;;;;2.23;2.03;;;;;;;51.29;9.20;100099.25;4825516;29;20062;-81
2022/08/01 09:43:20;;;;;;;3.45;2.13;;;;;;;50.75;9.46;100095.88;4836665;29;20070;-83
2022/08/01 09:45:47;;;;;;;3.80;1.95;;;;;;;50.24;8.87;100102.91;4832472;29;20487;-82
2022/08/01 09:48:15;;;;;;;2.13;1.92;;;;;;;49.48;8.83;100079.31;4816704;29;20070;-80
2022/08/01 09:50:44;;;;;;;3.50;3.20;;;;;;;49.48;8.69;100087.59;4814158;29;20150;-82
2022/08/01 09:53:11;;;;;;;3.38;2.58;;;;;;;49.72;9.12;100080.56;4822928;29;20029;-79
2022/08/01 09:55:38;;;;;;;1.88;1.77;;;;;;;50.03;8.53;100080.69;4837607;29;20042;-80
2022/08/01 09:58:05;;;;;;;3.97;1.75;;;;;;;50.48;8.43;100069.22;4814120;29;20047;-82
2022/08/01 10:00:33;;;;;;;2.00;1.80;;;;;;;51.42;8.46;100093.09;4817908;29;20038;-83
2022/08/01 10:03:00;;;;;;;2.63;2.13;;;;;;;51.63;8.04;100080.06;4823312;29;20081;-78
2022/08/01 10:05:35;;;;;;;3.35;2.10;;;;;;;52.17;7.59;100080.41;4838957;29;20050;-81
2022/08/01 10:08:04;;;;;;;3.70;2.05;;;;;;;51.66;7.47;100062.84;4825295;29;20038;-85
2022/08/01 10:10:31;;;;;;;3.60;1.98;;;;;;;50.82;8.64;100079.81;4838485;29;20485;-80
2022/08/01 10:12:59;;;;;;;2.25;2.10;;;;;;;50.18;8.22;100076.38;4839526;29;20050;-84
2022/08/01 10:15:27;;;;;;;2.00;1.80;;;;;;;48.41;8.65;100051.31;4825876;29;20087;-82
2022/08/01 10:17:57;;;;;;;3.63;1.83;;;;;;;47.81;9.03;100051.94;4825697;29;20046;-84
2022/08/01 10:20:32;;;;;;;3.67;2.08;;;;;;;47.23;9.77;100076.16;4821941;29;20376;-82
2022/08/01 10:23:00;;;;;;;2.90;1.73;;;;;;;43.98;10.98;100080.34;4824530;29;20085;-84
2022/08/01 10:25:29;;;;;;;2.35;1.70;;;;;;;40.70;12.58;100054.09;4823281;29;20053;-83
2022/08/01 10:27:59;;;;;;;3.38;1.98;;;;;;;39.51;13.69;100051.31;4838013;29;20050;-81
2022/08/01 10:30:25;;;;;;;;;;;;;;;40.42;14.02;100079.53;4816964;29;20050;-80
2022/08/01 10:32:52;;;;;;;5.70;2.17;;;;;;;40.88;13.32;100076.16;4814871;29;20338;-83
2022/08/01 10:35:19;;;;;;;3.17;2.00;;;;;;;39.65;13.61;100072.16;4832221;29;20050;-80
2022/08/01 10:37:46;;;;;;;4.28;1.90;;;;;;;37.86;15.23;100077.00;4819024;29;20053;-80
2022/08/01 10:40:14;;;;;;;4.18;1.90;;;;;;;37.32;15.85;100050.88;4819412;29;20057;-80
2022/08/01 10:42:42;;;;;;;4.72;2.20;;;;;;;36.70;16.15;100074.34;4817462;29;20053;-80
2022/08/01 10:45:11;;;;;;;4.28;2.20;;;;;;;35.91;17.02;100067.84;4816352;29;20061;-81
2022/08/01 10:47:40;;;;;;;3.65;2.20;;;;;;;35.77;17.65;100066.66;4816338;29;20129;-80
2022/08/01 10:50:31;;;;;;;3.60;2.00;;;;;;;35.03;18.41;100069.41;4818973;29;20054;-80
2022/08/01 10:53:06;;;;;;;;;;;;;;;34.94;18.29;100073.91;4832346;29;20133;-80
2022/08/01 10:55:47;;;;;;;2.38;2.03;;;;;;;34.67;18.46;100048.84;4818124;29;19927;-81
2022/08/01 10:58:19;;;;;;;3.13;1.80;;;;;;;34.04;18.30;100059.06;4816491;29;20133;-80
2022/08/01 11:00:45;;;;;;;2.95;2.03;;;;;;;33.51;19.27;100067.09;4832284;29;20308;-80
2022/08/01 11:03:11;;;;;;;5.00;2.13;;;;;;;33.01;19.61;100073.88;4818372;29;20107;-79
2022/08/01 11:05:40;;;;;;;3.35;2.13;;;;;;;32.53;20.33;100073.19;4817361;29;20156;-81
2022/08/01 11:08:20;;;;;;;3.17;1.90;;;;;;;32.30;20.34;100065.50;4817666;29;20046;-79
2022/08/01 11:10:47;;;;;;;1.67;1.58;;;;;;;32.20;20.56;100062.81;4830777;29;20077;-80
2022/08/01 11:13:13;;;;;;;1.88;1.77;;;;;;;32.13;20.15;100059.84;4815068;29;20050;-80
2022/08/01 11:15:40;;;;;;;2.08;1.42;;;;;;;32.07;20.04;100051.53;4815561;29;20586;-80
2022/08/01 11:18:28;;;;;;;4.80;1.65;;;;;;;32.08;20.44;100055.91;4816013;29;20046;-79
2022/08/01 11:21:01;;;;;;;2.20;1.83;;;;;;;32.03;20.82;100052.81;4816361;29;20053;-80
2022/08/01 11:23:29;;;;;;;2.13;1.60;;;;;;;32.15;20.95;100057.03;4825088;29;20042;-82
2022/08/01 11:25:55;;;;;;;3.55;1.60;;;;;;;32.23;21.09;100049.03;4825065;29;20096;-80
2022/08/01 11:28:24;;;;;;;4.65;1.70;;;;;;;32.02;21.20;100041.22;4826089;29;20050;-79
2022/08/01 11:31:17;;;;;;;4.82;2.00;;;;;;;31.96;21.06;100044.50;4818426;29;20129;-81
2022/08/01 11:33:44;;;;;;;4.28;1.88;;;;;;;31.79;21.96;100054.16;4814404;29;20484;-80